createdAt,value
2017-06-05T00:00:03.320Z,1.30
2017-06-05T00:02:42.627Z,1.40
2017-06-05T00:05:23.989Z,0.77
2017-06-05T00:08:03.854Z,1.10
2017-06-05T00:10:32.476Z,0.90
2017-06-05T00:13:08.537Z,0.90
2017-06-05T00:15:44.298Z,0.70
2017-06-05T00:18:12.927Z,0.60
2017-06-05T00:20:49.379Z,0.60
2017-06-05T00:23:25.478Z,0.83
2017-06-05T00:25:57.573Z,0.98
2017-06-05T00:28:26.204Z,0.70
2017-06-05T00:30:55.061Z,0.47
2017-06-05T00:33:36.252Z,0.40
2017-06-05T00:36:12.040Z,0.73
2017-06-05T00:38:40.681Z,0.93
2017-06-05T00:41:17.095Z,1.10
2017-06-05T00:43:54.155Z,0.70
2017-06-05T00:46:30.101Z,0.60
2017-06-05T00:51:45.877Z,0.30
2017-06-05T00:54:18.430Z,0.40
2017-06-05T00:56:50.408Z,0.40
2017-06-05T00:59:22.240Z,0.40
2017-06-05T01:01:50.899Z,0.40
2017-06-05T01:04:27.343Z,0.60
2017-06-05T01:07:03.454Z,0.30
2017-06-05T01:09:42.460Z,0.40
2017-06-05T01:12:18.490Z,0.50
2017-06-05T01:14:49.085Z,0.40
2017-06-05T01:17:17.714Z,0.40
2017-06-05T01:19:54.278Z,0.50
2017-06-05T01:22:36.878Z,0.60
2017-06-05T01:25:05.387Z,0.43
2017-06-05T01:27:33.824Z,0.30
2017-06-05T01:30:11.982Z,0.50
2017-06-05T01:32:47.723Z,0.40
2017-06-05T01:35:27.116Z,0.30
2017-06-05T01:38:03.042Z,0.60
2017-06-05T01:40:44.387Z,0.47
2017-06-05T01:43:20.031Z,1.00
2017-06-05T01:45:56.081Z,0.98
2017-06-05T01:48:41.438Z,1.17
2017-06-05T01:51:18.012Z,1.15
2017-06-05T01:53:53.983Z,0.93
2017-06-05T01:56:31.937Z,0.77
2017-06-05T01:59:00.419Z,0.80
2017-06-05T02:01:38.928Z,0.63
2017-06-05T02:04:16.006Z,0.50
2017-06-05T02:06:51.915Z,0.70
2017-06-05T02:09:28.038Z,1.17
2017-06-05T02:15:19.326Z,0.60
2017-06-05T02:17:58.698Z,0.90
2017-06-05T02:20:27.228Z,0.93
2017-06-05T02:22:56.517Z,0.77
2017-06-05T02:25:28.857Z,1.00
2017-06-05T02:28:04.950Z,0.80
2017-06-05T02:30:34.401Z,0.70
2017-06-05T02:33:17.245Z,0.80
2017-06-05T02:35:56.047Z,0.70
2017-06-05T02:38:31.858Z,0.53
2017-06-05T02:41:04.550Z,0.90
2017-06-05T02:43:46.239Z,0.70
2017-06-05T02:46:22.007Z,0.57
2017-06-05T02:49:03.675Z,0.77
2017-06-05T02:51:36.004Z,0.60
2017-06-05T02:54:04.494Z,0.30
2017-06-05T02:56:40.332Z,0.47
2017-06-05T02:59:12.930Z,0.40
2017-06-05T03:01:54.375Z,0.40
2017-06-05T03:04:36.138Z,0.50
2017-06-05T03:07:12.025Z,0.40
2017-06-05T03:09:48.041Z,0.57
2017-06-05T03:15:19.352Z,0.82
2017-06-05T03:17:48.694Z,0.70
2017-06-05T03:20:24.520Z,0.50
2017-06-05T03:23:00.212Z,0.77
2017-06-05T03:25:36.671Z,1.20
2017-06-05T03:28:12.990Z,1.10
2017-06-05T03:30:54.165Z,1.17
2017-06-05T03:33:34.300Z,0.80
2017-06-05T03:36:03.002Z,0.90
2017-06-05T03:38:38.694Z,1.25
2017-06-05T03:41:15.944Z,1.23
2017-06-05T03:43:44.378Z,1.00
2017-06-05T03:46:13.169Z,0.70
2017-06-05T03:48:55.475Z,1.10
2017-06-05T03:51:32.384Z,0.70
2017-06-05T03:54:01.889Z,0.57
2017-06-05T03:56:45.616Z,0.67
2017-06-05T03:59:27.078Z,0.77
2017-06-05T04:02:10.023Z,1.03
2017-06-05T04:04:38.601Z,0.43
2017-06-05T04:07:08.452Z,0.47
2017-06-05T04:09:44.407Z,0.60
2017-06-05T04:12:26.101Z,0.40
2017-06-05T04:14:58.298Z,0.40
2017-06-05T04:17:34.250Z,0.45
2017-06-05T04:20:02.911Z,0.50
2017-06-05T04:22:43.036Z,0.47
2017-06-05T04:25:18.500Z,0.60
2017-06-05T04:27:53.926Z,0.80
2017-06-05T04:30:29.775Z,0.70
2017-06-05T04:32:59.928Z,0.90
2017-06-05T04:35:36.725Z,0.47
2017-06-05T04:38:17.926Z,0.70
2017-06-05T04:40:50.446Z,0.60
2017-06-05T04:43:26.965Z,0.80
2017-06-05T04:46:02.699Z,0.80
2017-06-05T04:48:40.163Z,0.60
2017-06-05T04:51:15.992Z,0.55
2017-06-05T04:53:52.182Z,0.40
2017-06-05T04:56:23.992Z,0.43
2017-06-05T04:59:01.866Z,0.50
2017-06-05T05:04:13.642Z,0.70
2017-06-05T05:06:49.667Z,0.40
2017-06-05T05:09:25.981Z,0.40
2017-06-05T05:12:01.757Z,0.50
2017-06-05T05:14:39.370Z,0.70
2017-06-05T05:17:15.624Z,0.50
2017-06-05T05:19:44.228Z,0.37
2017-06-05T05:22:21.984Z,0.50
2017-06-05T05:25:01.326Z,0.47
2017-06-05T05:27:42.217Z,0.60
2017-06-05T05:30:19.909Z,0.43
2017-06-05T05:32:56.303Z,0.90
2017-06-05T05:35:32.729Z,1.50
2017-06-05T05:38:08.939Z,1.13
2017-06-05T05:40:41.111Z,1.00
2017-06-05T05:43:23.416Z,0.87
2017-06-05T05:45:51.880Z,0.50
2017-06-05T05:48:36.177Z,0.70
2017-06-05T05:51:12.844Z,0.70
2017-06-05T05:53:48.509Z,0.63
2017-06-05T05:56:24.074Z,0.43
2017-06-05T05:59:00.048Z,0.70
2017-06-05T06:01:28.506Z,0.50
2017-06-05T06:03:57.455Z,0.30
2017-06-05T06:06:33.071Z,0.67
2017-06-05T06:09:08.958Z,0.50
2017-06-05T06:11:40.755Z,0.50
2017-06-05T06:14:10.028Z,0.50
2017-06-05T06:16:45.862Z,0.50
2017-06-05T06:19:18.569Z,0.70
2017-06-05T06:21:47.040Z,1.10
2017-06-05T06:24:15.531Z,1.50
2017-06-05T06:26:51.549Z,0.87
2017-06-05T06:29:23.634Z,0.67
2017-06-05T06:31:53.248Z,0.70
2017-06-05T06:34:25.538Z,0.97
2017-06-05T06:37:01.533Z,0.70
2017-06-05T06:42:10.040Z,0.90
2017-06-05T06:44:49.096Z,0.90
2017-06-05T06:47:24.904Z,0.60
2017-06-05T06:49:56.848Z,0.60
2017-06-05T06:52:43.667Z,1.00
2017-06-05T06:55:19.940Z,0.70
2017-06-05T06:57:55.952Z,0.60
2017-06-05T07:00:28.487Z,0.77
2017-06-05T07:03:05.257Z,0.97
2017-06-05T07:05:44.580Z,1.00
2017-06-05T07:08:22.910Z,0.63
2017-06-05T07:10:51.354Z,1.17
2017-06-05T07:13:24.179Z,0.73
2017-06-05T07:16:00.149Z,0.80
2017-06-05T07:18:28.696Z,0.80
2017-06-05T07:21:04.216Z,0.70
2017-06-05T07:23:41.498Z,0.70
2017-06-05T07:26:24.641Z,0.60
2017-06-05T07:29:00.706Z,0.90
2017-06-05T07:31:29.255Z,0.80
2017-06-05T07:33:58.180Z,0.80
2017-06-05T07:36:27.738Z,0.63
2017-06-05T07:39:08.764Z,0.87
2017-06-05T07:41:37.129Z,0.80
2017-06-05T07:44:09.093Z,0.90
2017-06-05T07:46:37.648Z,1.00
2017-06-05T07:49:14.058Z,0.80
2017-06-05T07:51:42.608Z,1.07
2017-06-05T07:54:15.118Z,0.87
2017-06-05T07:56:48.192Z,1.00
2017-06-05T07:59:25.257Z,0.83
2017-06-05T08:02:01.227Z,1.00
2017-06-05T08:04:37.274Z,1.23
2017-06-05T08:07:13.029Z,1.27
2017-06-05T08:09:49.344Z,1.00
2017-06-05T08:12:26.674Z,0.77
2017-06-05T08:14:55.151Z,0.63
2017-06-05T08:17:30.591Z,0.87
2017-06-05T08:20:06.568Z,0.60
2017-06-05T08:22:43.683Z,0.60
2017-06-05T08:25:26.675Z,0.60
2017-06-05T08:28:07.972Z,0.80
2017-06-05T08:30:37.331Z,0.70
2017-06-05T08:33:05.821Z,0.90
2017-06-05T08:35:34.321Z,2.30
2017-06-05T08:38:10.424Z,0.80
2017-06-05T08:40:38.942Z,0.60
2017-06-05T08:43:11.345Z,0.70
2017-06-05T08:45:47.212Z,0.60
2017-06-05T08:48:23.265Z,0.70
2017-06-05T08:50:55.421Z,1.33
2017-06-05T08:53:23.914Z,1.27
2017-06-05T08:56:16.636Z,0.83
2017-06-05T09:09:47.253Z,0.90
2017-06-05T09:12:16.213Z,0.70
2017-06-05T09:14:52.170Z,0.67
2017-06-05T09:17:22.463Z,0.50
2017-06-05T09:19:50.920Z,0.63
2017-06-05T09:22:27.696Z,0.67
2017-06-05T09:24:57.677Z,0.50
2017-06-05T09:27:29.790Z,0.60
2017-06-05T09:30:05.230Z,0.90
2017-06-05T09:35:15.203Z,0.60
2017-06-05T09:37:43.654Z,0.43
2017-06-05T09:40:19.045Z,0.50
2017-06-05T09:42:54.956Z,0.60
2017-06-05T09:45:30.732Z,0.60
2017-06-05T09:48:07.320Z,0.77
2017-06-05T09:50:43.081Z,1.27
2017-06-05T09:53:19.182Z,0.40
2017-06-05T09:55:55.287Z,0.77
2017-06-05T09:58:23.751Z,0.50
2017-06-05T10:00:55.887Z,0.80
2017-06-05T10:03:31.893Z,0.70
2017-06-05T10:06:08.893Z,0.40
2017-06-05T10:08:37.474Z,0.50
2017-06-05T10:11:12.851Z,1.23
2017-06-05T10:13:48.819Z,0.43
2017-06-05T10:16:17.289Z,0.70
2017-06-05T10:18:53.166Z,0.60
2017-06-05T10:21:23.028Z,0.63
2017-06-05T10:23:56.016Z,0.60
2017-06-05T10:26:31.952Z,0.90
2017-06-05T10:29:00.368Z,0.63
2017-06-05T10:31:28.883Z,0.50
2017-06-05T10:33:57.305Z,0.80
2017-06-05T10:36:25.790Z,1.00
2017-06-05T10:39:01.942Z,0.80
2017-06-05T10:41:38.056Z,0.70
2017-06-05T10:44:17.344Z,0.70
2017-06-05T10:46:53.089Z,0.53
2017-06-05T10:49:21.852Z,0.80
2017-06-05T10:51:57.684Z,0.97
2017-06-05T10:54:33.453Z,0.60
2017-06-05T10:57:01.958Z,1.30
2017-06-05T10:59:37.530Z,0.57
2017-06-05T11:02:14.767Z,0.90
2017-06-05T11:04:50.218Z,0.70
2017-06-05T11:07:22.492Z,0.70
2017-06-05T11:09:58.535Z,0.70
2017-06-05T11:12:39.651Z,0.70
2017-06-05T11:15:08.476Z,0.80
2017-06-05T11:17:49.345Z,0.97
2017-06-05T11:20:18.013Z,1.10
2017-06-05T11:22:46.492Z,0.90
2017-06-05T11:25:14.947Z,0.73
2017-06-05T11:27:51.216Z,1.17
2017-06-05T11:30:27.630Z,0.80
2017-06-05T11:33:10.796Z,1.20
2017-06-05T11:35:39.599Z,0.87
2017-06-05T11:38:19.402Z,0.80
2017-06-05T11:40:56.029Z,0.90
2017-06-05T11:43:31.974Z,0.80
2017-06-05T11:46:01.167Z,0.67
2017-06-05T11:48:38.804Z,0.83
2017-06-05T11:51:21.408Z,0.63
2017-06-05T11:53:49.895Z,0.73
2017-06-05T11:56:18.395Z,1.00
2017-06-05T11:58:50.566Z,1.00
2017-06-05T12:01:27.052Z,0.63
2017-06-05T12:04:03.567Z,0.90
2017-06-05T12:06:35.424Z,0.80
2017-06-05T12:09:07.357Z,0.80
2017-06-05T12:11:36.651Z,0.90
2017-06-05T12:14:12.451Z,0.60
2017-06-05T12:16:44.483Z,0.63
2017-06-05T12:19:24.428Z,0.80
2017-06-05T12:21:59.959Z,0.80
2017-06-05T12:24:35.855Z,0.60
2017-06-05T12:27:19.178Z,0.60
2017-06-05T12:30:00.751Z,0.70
2017-06-05T12:32:39.043Z,0.67
2017-06-05T12:35:13.450Z,0.70
2017-06-05T12:40:29.661Z,0.77
2017-06-05T12:42:58.107Z,0.83
2017-06-05T12:45:26.499Z,0.80
2017-06-05T12:48:02.287Z,0.70
2017-06-05T12:53:21.383Z,0.70
2017-06-05T12:55:56.895Z,0.70
2017-06-05T12:58:55.707Z,0.63
2017-06-05T13:01:24.958Z,0.80
2017-06-05T13:03:55.106Z,1.00
2017-06-05T13:06:23.517Z,0.93
2017-06-05T13:08:52.722Z,0.80
2017-06-05T13:11:32.717Z,1.03
2017-06-05T13:17:35.517Z,1.20
2017-06-05T13:20:03.991Z,1.03
2017-06-05T13:22:40.194Z,0.90
2017-06-05T13:25:17.097Z,1.20
2017-06-05T13:27:45.538Z,0.93
2017-06-05T13:30:21.812Z,1.00
2017-06-05T13:32:50.967Z,1.10
2017-06-05T13:35:50.229Z,0.87
2017-06-05T13:38:22.540Z,1.00
2017-06-05T13:41:17.772Z,1.10
2017-06-05T13:43:46.195Z,1.30
2017-06-05T13:46:22.096Z,1.00
2017-06-05T13:48:50.566Z,0.93
2017-06-05T13:51:31.793Z,1.30
2017-06-05T13:54:04.259Z,0.90
2017-06-05T13:56:40.362Z,1.00
2017-06-05T13:59:08.819Z,1.33
2017-06-05T14:01:37.271Z,1.20
2017-06-05T14:04:06.428Z,1.20
2017-06-05T14:06:34.985Z,1.10
2017-06-05T14:09:03.287Z,1.00
2017-06-05T14:11:31.693Z,1.00
2017-06-05T14:14:17.679Z,1.17
2017-06-05T14:16:46.110Z,0.97
2017-06-05T14:19:14.458Z,0.90
2017-06-05T14:21:49.924Z,1.60
2017-06-05T14:24:18.353Z,1.23
2017-06-05T14:26:55.213Z,1.20
2017-06-05T14:29:23.690Z,1.90
2017-06-05T14:31:52.175Z,1.20
2017-06-05T14:34:20.621Z,1.00
2017-06-05T14:36:56.959Z,1.30
2017-06-05T14:39:33.661Z,1.30
2017-06-05T14:42:09.565Z,1.40
2017-06-05T14:44:45.374Z,1.30
2017-06-05T14:47:26.823Z,1.30
2017-06-05T14:49:58.387Z,1.23
2017-06-05T14:52:37.817Z,1.40
2017-06-05T14:55:06.412Z,1.40
2017-06-05T14:57:34.850Z,1.70
2017-06-05T15:00:11.124Z,1.40
2017-06-05T15:02:47.307Z,1.40
2017-06-05T15:05:15.860Z,1.20
2017-06-05T15:07:52.418Z,1.60
2017-06-05T15:10:28.750Z,1.60
2017-06-05T15:13:00.887Z,1.57
2017-06-05T15:18:20.817Z,1.27
2017-06-05T15:20:49.277Z,1.20
2017-06-05T15:23:19.671Z,1.33
2017-06-05T15:26:18.927Z,1.37
2017-06-05T15:28:50.738Z,1.83
2017-06-05T15:31:33.439Z,1.40
2017-06-05T15:34:03.061Z,1.40
2017-06-05T15:39:19.968Z,1.53
2017-06-05T15:44:38.728Z,1.50
2017-06-05T15:47:09.508Z,1.50
2017-06-05T15:49:46.223Z,1.60
2017-06-05T15:52:23.144Z,1.57
2017-06-05T15:54:58.776Z,1.40
2017-06-05T15:57:39.228Z,1.60
2017-06-05T16:00:15.837Z,1.60
2017-06-05T16:02:53.225Z,2.00
2017-06-05T16:05:33.431Z,1.70
2017-06-05T16:08:38.175Z,1.73
2017-06-05T16:11:27.585Z,1.83
2017-06-05T16:14:10.928Z,2.13
2017-06-05T16:16:48.040Z,2.33
2017-06-05T16:19:36.637Z,1.67
2017-06-05T16:28:46.209Z,2.00
2017-06-05T16:31:15.814Z,2.00
2017-06-05T16:33:59.361Z,2.33
2017-06-05T16:40:14.300Z,2.30
2017-06-05T16:43:10.070Z,2.43
2017-06-05T16:52:32.836Z,2.67
2017-06-05T16:58:20.329Z,2.00
2017-06-05T17:11:27.041Z,2.10
2017-06-05T17:14:05.406Z,2.43
2017-06-05T17:16:55.588Z,2.17
2017-06-05T17:29:10.717Z,2.40
2017-06-05T17:31:47.327Z,1.97
2017-06-05T17:34:50.177Z,2.67
2017-06-05T17:37:39.375Z,2.50
2017-06-05T17:43:26.757Z,2.13
2017-06-05T17:46:25.343Z,2.73
2017-06-05T17:52:30.186Z,2.70
2017-06-05T17:54:59.159Z,2.30
2017-06-05T17:57:27.700Z,2.20
2017-06-05T18:00:04.087Z,2.40
2017-06-05T18:02:40.319Z,2.27
2017-06-05T18:05:22.800Z,2.40
2017-06-05T18:07:59.408Z,2.40
2017-06-05T18:10:36.290Z,2.43
2017-06-05T18:13:12.528Z,2.47
2017-06-05T18:15:51.288Z,2.87
2017-06-05T18:18:28.309Z,3.20
2017-06-05T18:21:10.182Z,2.50
2017-06-05T18:23:46.218Z,2.50
2017-06-05T18:26:27.894Z,2.90
2017-06-05T18:29:09.808Z,3.20
2017-06-05T18:31:46.708Z,2.57
2017-06-05T18:34:30.360Z,2.30
2017-06-05T18:37:07.428Z,2.97
2017-06-05T18:39:43.782Z,2.70
2017-06-05T18:49:28.304Z,2.47
2017-06-05T18:52:45.684Z,2.50
2017-06-05T18:55:35.199Z,2.83
2017-06-05T19:01:59.424Z,2.67
2017-06-05T19:04:44.698Z,3.27
2017-06-05T19:20:49.035Z,2.90
2017-06-05T19:23:28.450Z,3.00
